Time;durP1;ratioP1;P1;durP2;ratioP2;P2;SDS_P1;SDS_P2;PMS_P1;PMS_P2;Temp;Humidity;BMP_temperature;BMP_pressure;BME280_temperature;BME280_humidity;BME280_pressure;Samples;Min_cycle;Max_cycle;Signal;HPM_P1;HPM_P2
2022/01/31 00:02:08;;;;;;;10.95;5.05;;;3.90;99.90;;;;;;5027555;28;20269;-86
2022/01/31 00:04:35;;;;;;;14.82;6.00;;;3.90;99.90;;;;;;5027479;28;20262;-87
2022/01/31 00:07:03;;;;;;;14.15;4.55;;;4.00;99.90;;;;;;5024086;28;20285;-87
2022/01/31 00:09:30;;;;;;;13.25;5.00;;;4.00;99.90;;;;;;5023753;28;20257;-86
2022/01/31 00:12:02;;;;;;;13.45;5.85;;;4.10;99.90;;;;;;5024020;28;20239;-86
2022/01/31 00:14:33;;;;;;;17.40;5.18;;;3.80;99.90;;;;;;5037306;28;20318;-85
2022/01/31 00:17:01;;;;;;;8.77;4.35;;;3.80;99.90;;;;;;5033718;28;20227;-87
2022/01/31 00:19:29;;;;;;;16.02;4.50;;;4.10;99.90;;;;;;5027861;28;20214;-86
2022/01/31 00:21:56;;;;;;;12.57;4.57;;;3.90;99.90;;;;;;5028186;28;20714;-86
2022/01/31 00:24:23;;;;;;;15.65;4.70;;;3.80;99.90;;;;;;5026982;28;20322;-87
2022/01/31 00:26:50;;;;;;;11.85;4.20;;;4.30;99.90;;;;;;5033833;28;20204;-87
2022/01/31 00:29:18;;;;;;;14.10;4.93;;;4.20;99.90;;;;;;5027369;28;20226;-86
2022/01/31 00:31:45;;;;;;;9.85;4.40;;;3.60;99.90;;;;;;5024586;28;20275;-86
2022/01/31 00:34:12;;;;;;;15.05;4.70;;;3.80;99.90;;;;;;5028209;28;20227;-86
2022/01/31 00:36:39;;;;;;;12.68;5.03;;;3.70;99.90;;;;;;5025182;28;20211;-88
2022/01/31 00:39:06;;;;;;;12.73;4.35;;;4.10;99.90;;;;;;5023710;28;20301;-86
2022/01/31 00:41:33;;;;;;;8.10;4.38;;;4.20;99.90;;;;;;5028572;28;20215;-87
2022/01/31 00:44:02;;;;;;;12.65;4.28;;;3.80;99.90;;;;;;5028650;28;20231;-85
2022/01/31 00:46:38;;;;;;;16.10;4.80;;;4.10;99.90;;;;;;5030218;28;20207;-86
2022/01/31 00:49:11;;;;;;;10.88;4.90;;;4.20;99.90;;;;;;5035038;28;20606;-85
2022/01/31 00:51:38;;;;;;;13.77;3.95;;;3.60;99.90;;;;;;5027334;28;20192;-88
2022/01/31 00:54:05;;;;;;;14.48;4.82;;;3.80;99.90;;;;;;5024297;28;20301;-88
2022/01/31 00:56:32;;;;;;;10.55;3.30;;;4.20;99.90;;;;;;5023058;28;20274;-88
2022/01/31 00:58:59;;;;;;;8.20;4.30;;;3.70;99.90;;;;;;5023426;28;20652;-88
2022/01/31 01:01:26;;;;;;;12.05;4.30;;;4.20;99.90;;;;;;5026946;28;20213;-86
2022/01/31 01:03:54;;;;;;;11.30;5.75;;;4.30;99.90;;;;;;5028868;28;20321;-85
2022/01/31 01:06:21;;;;;;;9.80;4.93;;;3.80;99.90;;;;;;5028918;28;20211;-86
2022/01/31 01:08:48;;;;;;;11.20;4.30;;;4.20;99.90;;;;;;5013511;28;20275;-87
2022/01/31 01:11:15;;;;;;;12.60;4.82;;;4.50;99.90;;;;;;5039685;28;20274;-87
2022/01/31 01:13:42;;;;;;;9.52;4.43;;;4.40;99.90;;;;;;5038114;28;20219;-88
2022/01/31 01:16:09;;;;;;;10.93;5.40;;;4.30;99.90;;;;;;5026446;28;20382;-87
2022/01/31 01:18:36;;;;;;;14.55;4.97;;;4.50;99.90;;;;;;5020516;28;20211;-86
2022/01/31 01:21:04;;;;;;;9.35;4.43;;;4.30;99.90;;;;;;5021003;28;20575;-85
2022/01/31 01:23:31;;;;;;;16.15;4.93;;;3.90;99.90;;;;;;5020783;28;20238;-86
2022/01/31 01:25:58;;;;;;;13.57;4.20;;;4.40;99.90;;;;;;5019822;28;20330;-87
2022/01/31 01:28:25;;;;;;;17.73;4.78;;;3.90;99.90;;;;;;5020150;28;20204;-85
2022/01/31 01:30:54;;;;;;;13.07;4.63;;;4.20;99.90;;;;;;5022471;28;20215;-87
2022/01/31 01:33:23;;;;;;;15.68;6.13;;;4.40;99.90;;;;;;5020888;28;20779;-86
2022/01/31 01:35:51;;;;;;;9.77;4.90;;;4.70;99.90;;;;;;5020467;28;20235;-87
2022/01/31 01:38:22;;;;;;;14.02;5.60;;;4.20;99.90;;;;;;5025586;28;20625;-88
2022/01/31 01:40:49;;;;;;;17.27;5.95;;;4.30;99.90;;;;;;5026946;28;20230;-88
2022/01/31 01:43:17;;;;;;;13.40;5.38;;;4.70;99.90;;;;;;5022055;28;20245;-87
2022/01/31 01:45:44;;;;;;;10.05;4.65;;;4.60;99.90;;;;;;5020961;28;20234;-88
2022/01/31 01:48:11;;;;;;;15.75;5.45;;;4.60;99.90;;;;;;5021114;28;20245;-87
2022/01/31 01:50:40;;;;;;;15.57;5.32;;;4.30;99.90;;;;;;5021050;28;20208;-86
2022/01/31 01:53:08;;;;;;;14.02;5.28;;;4.60;99.90;;;;;;5021338;28;20688;-87
2022/01/31 01:55:36;;;;;;;11.50;4.30;;;4.70;99.90;;;;;;5021829;28;20243;-89
2022/01/31 01:58:05;;;;;;;13.98;5.30;;;4.40;99.90;;;;;;5032810;28;20221;-86
2022/01/31 02:00:49;;;;;;;17.27;5.10;;;4.80;99.90;;;;;;5038848;28;20196;-87
2022/01/31 02:03:16;;;;;;;11.63;4.50;;;4.90;99.90;;;;;;5027494;28;20224;-87
2022/01/31 02:05:43;;;;;;;10.57;4.38;;;4.70;99.90;;;;;;5022575;28;20303;-87
2022/01/31 02:08:13;;;;;;;14.70;4.60;;;5.00;99.90;;;;;;5025427;28;20207;-87
2022/01/31 02:10:41;;;;;;;15.80;5.90;;;4.90;99.90;;;;;;5024311;28;20207;-89
2022/01/31 02:13:10;;;;;;;12.45;5.53;;;5.00;99.90;;;;;;5024454;28;20227;-88
2022/01/31 02:15:37;;;;;;;17.30;4.88;;;4.70;99.90;;;;;;5027551;28;20286;-88
2022/01/31 02:18:05;;;;;;;12.15;4.30;;;4.60;99.90;;;;;;5028403;28;20219;-86
2022/01/31 02:20:36;;;;;;;10.38;4.63;;;4.30;99.90;;;;;;5021205;28;20243;-86
2022/01/31 02:23:07;;;;;;;11.00;4.65;;;5.00;99.90;;;;;;5020916;28;20203;-89
2022/01/31 02:25:34;;;;;;;11.43;4.85;;;5.10;99.90;;;;;;5028314;28;20246;-88
2022/01/31 02:28:01;;;;;;;13.82;4.38;;;4.60;99.90;;;;;;5021731;28;20235;-87
2022/01/31 02:30:28;;;;;;;20.02;5.20;;;5.00;99.90;;;;;;5021305;28;20248;-87
2022/01/31 02:32:55;;;;;;;10.80;4.43;;;4.90;99.90;;;;;;5022154;28;20219;-88
2022/01/31 02:35:22;;;;;;;11.20;4.70;;;4.70;99.90;;;;;;5021937;28;20227;-86
2022/01/31 02:37:50;;;;;;;17.40;4.90;;;4.40;99.90;;;;;;5025268;28;20214;-87
2022/01/31 02:40:17;;;;;;;11.27;4.28;;;4.90;99.90;;;;;;5024077;28;20211;-86
2022/01/31 02:42:44;;;;;;;11.60;4.50;;;4.90;99.90;;;;;;5022177;28;20210;-87
2022/01/31 02:45:11;;;;;;;16.13;5.15;;;4.80;99.90;;;;;;5020182;28;20313;-87
2022/01/31 02:47:41;;;;;;;15.68;4.85;;;4.50;99.90;;;;;;5020657;28;20208;-89
2022/01/31 02:50:12;;;;;;;20.25;4.70;;;4.60;99.90;;;;;;5020672;28;20199;-88
2022/01/31 02:52:46;;;;;;;11.48;5.15;;;4.90;99.90;;;;;;5020378;28;20612;-87
2022/01/31 02:55:15;;;;;;;10.18;4.60;;;4.50;99.90;;;;;;5021989;28;20234;-86
2022/01/31 02:57:42;;;;;;;11.50;5.00;;;4.20;99.90;;;;;;5030148;28;20683;-87
2022/01/31 03:00:11;;;;;;;16.55;5.78;;;4.90;99.90;;;;;;5028135;28;20649;-85
2022/01/31 03:02:38;;;;;;;12.65;5.13;;;4.80;99.90;;;;;;5024094;28;20227;-87
2022/01/31 03:05:05;;;;;;;19.65;6.40;;;4.70;99.90;;;;;;5031353;28;20223;-86
2022/01/31 03:07:34;;;;;;;17.52;5.13;;;4.20;99.90;;;;;;5030769;28;20218;-86
2022/01/31 03:10:02;;;;;;;7.93;4.45;;;4.40;99.90;;;;;;5027887;28;20211;-85
2022/01/31 03:12:30;;;;;;;9.15;4.90;;;4.40;99.90;;;;;;5025174;28;20215;-88
2022/01/31 03:14:57;;;;;;;11.00;4.05;;;5.10;99.90;;;;;;5019536;28;20262;-87
2022/01/31 03:17:24;;;;;;;16.10;5.15;;;4.90;99.90;;;;;;5020091;28;20207;-86
2022/01/31 03:19:54;;;;;;;12.95;4.35;;;5.20;99.90;;;;;;5019722;28;20210;-86
2022/01/31 03:22:23;;;;;;;14.23;4.70;;;5.30;99.90;;;;;;5020265;28;20298;-88
2022/01/31 03:24:50;;;;;;;7.65;3.70;;;5.00;99.90;;;;;;5020626;28;20297;-87
2022/01/31 03:27:17;;;;;;;11.88;5.03;;;4.90;99.90;;;;;;5022466;28;20239;-86
2022/01/31 03:29:45;;;;;;;8.90;4.00;;;5.00;99.90;;;;;;5022097;28;20271;-88
2022/01/31 03:32:12;;;;;;;14.02;5.43;;;4.80;99.90;;;;;;5020679;28;20227;-87
2022/01/31 03:34:39;;;;;;;11.65;5.10;;;4.90;99.90;;;;;;5019203;28;20282;-87
2022/01/31 03:37:06;;;;;;;11.55;4.30;;;4.50;99.90;;;;;;5019903;28;20242;-87
2022/01/31 03:39:33;;;;;;;18.85;5.13;;;4.30;99.90;;;;;;5021241;28;20295;-88
2022/01/31 03:42:00;;;;;;;15.88;4.63;;;4.60;99.90;;;;;;5019440;28;20287;-86
2022/01/31 03:44:27;;;;;;;15.20;4.80;;;4.90;99.90;;;;;;5021635;28;20670;-86
2022/01/31 03:46:55;;;;;;;12.00;4.72;;;5.10;99.90;;;;;;5022266;28;20647;-87
2022/01/31 03:49:22;;;;;;;9.70;5.00;;;5.00;99.90;;;;;;5019871;28;20238;-87
2022/01/31 03:51:49;;;;;;;9.95;4.80;;;5.10;99.90;;;;;;5019492;28;20605;-88
2022/01/31 03:54:16;;;;;;;11.43;5.20;;;5.20;99.90;;;;;;5019640;28;20291;-87
2022/01/31 03:56:43;;;;;;;6.45;4.10;;;5.30;99.90;;;;;;5019195;28;20303;-87
2022/01/31 03:59:10;;;;;;;12.27;4.70;;;4.90;99.90;;;;;;5018598;28;20661;-87
2022/01/31 04:01:37;;;;;;;12.57;4.70;;;4.70;99.90;;;;;;5019680;28;20293;-87
2022/01/31 04:04:10;;;;;;;7.63;4.13;;;5.00;99.90;;;;;;5019576;28;20262;-87
2022/01/31 04:06:37;;;;;;;11.10;4.70;;;5.10;99.90;;;;;;5026014;28;20195;-87
2022/01/31 04:09:04;;;;;;;12.77;5.53;;;5.10;99.90;;;;;;5027683;28;20604;-88
2022/01/31 04:11:31;;;;;;;11.40;5.38;;;5.00;99.90;;;;;;5022335;28;20660;-87
2022/01/31 04:13:58;;;;;;;12.02;4.65;;;4.80;99.90;;;;;;5020716;28;20298;-85
2022/01/31 04:16:24;;;;;;;11.98;4.75;;;4.60;99.90;;;;;;5020262;28;20207;-87
2022/01/31 04:18:52;;;;;;;9.70;3.70;;;4.60;99.90;;;;;;5022707;28;20624;-87
2022/01/31 04:21:21;;;;;;;9.23;4.65;;;5.00;99.90;;;;;;5023384;28;20226;-86
2022/01/31 04:23:50;;;;;;;16.88;5.65;;;5.10;99.90;;;;;;5035517;28;20230;-87
2022/01/31 04:27:05;;;;;;;;;;;;;;;;;;;;;
2022/01/31 04:29:46;;;;;;;9.88;3.80;;;5.20;99.90;;;;;;5010497;28;20251;-88
2022/01/31 04:32:16;;;;;;;9.10;4.10;;;5.20;99.90;;;;;;5035795;28;20215;-88
2022/01/31 04:38:09;;;;;;;10.13;4.10;;;5.40;99.90;;;;;;5030299;28;20196;-89
2022/01/31 04:40:58;;;;;;;11.20;5.65;;;5.60;99.90;;;;;;5036657;28;20191;-86
2022/01/31 04:43:37;;;;;;;9.48;4.30;;;5.00;99.90;;;;;;5035683;28;20188;-88
2022/01/31 04:46:13;;;;;;;7.70;4.13;;;5.20;99.90;;;;;;5039280;28;20223;-87
2022/01/31 04:48:46;;;;;;;12.43;4.50;;;5.50;99.90;;;;;;5035991;28;20178;-88
2022/01/31 04:51:45;;;;;;;9.00;4.05;;;5.70;99.90;;;;;;5036899;28;20203;-88
2022/01/31 04:54:16;;;;;;;7.75;3.90;;;5.50;99.90;;;;;;4977430;28;20191;-88
2022/01/31 04:56:46;;;;;;;11.23;4.78;;;5.20;99.90;;;;;;5040356;28;20226;-88
2022/01/31 04:59:20;;;;;;;11.10;4.68;;;5.50;99.90;;;;;;5036147;28;20256;-88
2022/01/31 05:01:54;;;;;;;11.48;4.45;;;5.40;99.90;;;;;;5040787;28;20175;-87
2022/01/31 05:04:37;;;;;;;10.00;3.38;;;5.60;99.90;;;;;;5041352;28;20322;-86
2022/01/31 05:07:07;;;;;;;10.75;3.83;;;5.70;99.90;;;;;;5039241;28;20202;-88
2022/01/31 05:09:47;;;;;;;9.35;4.22;;;5.50;99.90;;;;;;5037393;28;20191;-87
2022/01/31 05:13:00;;;;;;;7.80;3.80;;;5.50;99.90;;;;;;5040438;28;20195;-87
2022/01/31 05:15:36;;;;;;;7.32;3.85;;;5.60;99.90;;;;;;5032028;28;20207;-86
2022/01/31 05:18:06;;;;;;;12.52;3.90;;;5.30;99.90;;;;;;5032467;28;20226;-89
2022/01/31 05:20:51;;;;;;;6.38;3.22;;;5.60;99.90;;;;;;5031322;28;20223;-87
2022/01/31 05:23:18;;;;;;;10.13;4.15;;;5.10;99.90;;;;;;5031894;28;20176;-88
2022/01/31 05:25:46;;;;;;;11.05;3.55;;;5.50;99.90;;;;;;5028255;28;20228;-89
2022/01/31 05:28:13;;;;;;;9.65;3.78;;;5.50;99.90;;;;;;5028202;28;20195;-89
2022/01/31 05:30:43;;;;;;;7.43;3.33;;;5.50;99.90;;;;;;5030119;28;20255;-90
2022/01/31 05:41:49;;;;;;;8.95;4.43;;;5.70;99.90;;;;;;5055616;28;20259;-89
2022/01/31 05:44:19;;;;;;;9.80;4.65;;;5.80;99.90;;;;;;5051232;28;20206;-89
2022/01/31 05:46:46;;;;;;;13.50;4.30;;;5.70;99.90;;;;;;5031289;28;20211;-89
2022/01/31 05:49:15;;;;;;;9.77;4.13;;;5.50;99.90;;;;;;5035049;28;20180;-88
2022/01/31 05:52:07;;;;;;;5.35;3.42;;;5.60;99.90;;;;;;5032474;28;20208;-88
2022/01/31 05:54:46;;;;;;;9.57;3.70;;;6.00;99.90;;;;;;5032962;28;20207;-88
2022/01/31 05:57:17;;;;;;;12.48;3.25;;;6.00;99.90;;;;;;5029404;28;20192;-87
2022/01/31 05:59:47;;;;;;;10.32;3.17;;;5.80;99.90;;;;;;5030367;28;20188;-88
2022/01/31 06:02:23;;;;;;;11.55;4.68;;;6.10;99.90;;;;;;5033043;28;20235;-88
2022/01/31 06:08:06;;;;;;;7.75;3.70;;;6.20;99.90;;;;;;5029961;28;20215;-90
2022/01/31 06:10:40;;;;;;;11.18;3.90;;;5.90;99.90;;;;;;5031199;28;20262;-88
2022/01/31 06:13:09;;;;;;;9.70;3.20;;;6.00;99.90;;;;;;5022891;28;20183;-88
2022/01/31 06:15:36;;;;;;;8.93;3.75;;;6.10;99.90;;;;;;5021828;28;20281;-88
2022/01/31 06:18:03;;;;;;;6.55;2.70;;;6.10;99.90;;;;;;5030565;28;20216;-89
2022/01/31 06:20:33;;;;;;;6.57;3.10;;;6.00;99.90;;;;;;5036603;28;20218;-89
2022/01/31 06:23:00;;;;;;;8.65;3.97;;;6.10;99.90;;;;;;5036554;28;20708;-89
2022/01/31 06:25:27;;;;;;;11.30;4.20;;;6.10;99.90;;;;;;5024579;28;20246;-89
2022/01/31 06:27:54;;;;;;;7.13;3.28;;;6.10;99.90;;;;;;5020939;28;20215;-89
2022/01/31 06:30:22;;;;;;;10.27;3.05;;;6.30;99.90;;;;;;5027550;28;20207;-89
2022/01/31 06:32:49;;;;;;;6.22;3.30;;;6.20;99.90;;;;;;5036593;28;20226;-88
2022/01/31 06:35:17;;;;;;;8.18;3.50;;;5.80;99.90;;;;;;5023094;28;20227;-90
2022/01/31 06:37:44;;;;;;;9.85;2.97;;;6.10;99.90;;;;;;5023067;28;20214;-89
2022/01/31 06:40:12;;;;;;;8.13;3.35;;;5.90;99.90;;;;;;5024978;28;20673;-89
2022/01/31 06:42:39;;;;;;;11.82;3.67;;;5.60;99.90;;;;;;5023192;28;20218;-90
2022/01/31 06:45:06;;;;;;;9.00;4.05;;;5.90;99.90;;;;;;5021735;28;20265;-88
2022/01/31 06:47:35;;;;;;;10.15;3.33;;;5.80;99.90;;;;;;5022117;28;20234;-88
2022/01/31 06:50:04;;;;;;;9.20;4.00;;;6.00;99.90;;;;;;5023394;28;20265;-88
2022/01/31 06:52:36;;;;;;;11.55;4.10;;;5.70;99.90;;;;;;5024361;28;20235;-89
2022/01/31 06:55:05;;;;;;;8.02;3.40;;;5.90;99.90;;;;;;5022509;28;20266;-89
2022/01/31 06:57:36;;;;;;;8.65;3.60;;;5.90;99.90;;;;;;5026812;28;20238;-90
2022/01/31 07:00:06;;;;;;;8.98;3.88;;;5.80;99.90;;;;;;5031084;28;20238;-87
2022/01/31 07:02:35;;;;;;;9.27;3.53;;;5.80;99.90;;;;;;5030403;28;20366;-88
2022/01/31 07:05:03;;;;;;;8.88;3.75;;;5.70;99.90;;;;;;5022461;28;20299;-89
2022/01/31 07:07:33;;;;;;;13.63;4.13;;;5.80;99.90;;;;;;5020723;28;20211;-90
2022/01/31 07:10:01;;;;;;;14.52;4.63;;;5.80;99.90;;;;;;5021175;28;20556;-89
2022/01/31 07:12:32;;;;;;;9.85;4.57;;;5.80;99.90;;;;;;5020946;28;20218;-89
2022/01/31 07:14:59;;;;;;;8.57;4.05;;;5.70;99.90;;;;;;5023255;28;20227;-87
2022/01/31 07:18:13;;;;;;;;;;;;;;;;;;;;;
2022/01/31 07:20:44;;;;;;;8.02;3.42;;;5.80;99.90;;;;;;5002217;28;20226;-88
2022/01/31 07:23:17;;;;;;;8.90;3.65;;;5.80;99.90;;;;;;5022330;28;20195;-89
2022/01/31 07:25:44;;;;;;;7.22;4.53;;;6.00;99.90;;;;;;5023604;28;20250;-89
2022/01/31 07:28:12;;;;;;;7.90;3.95;;;5.40;99.90;;;;;;5021098;28;20571;-88
2022/01/31 07:30:41;;;;;;;8.52;3.88;;;5.30;99.90;;;;;;5021178;28;20208;-89
2022/01/31 07:33:11;;;;;;;7.90;4.00;;;5.80;99.90;;;;;;5021270;28;20619;-89
2022/01/31 07:35:38;;;;;;;9.82;3.58;;;5.30;99.90;;;;;;5020454;28;20338;-89
2022/01/31 07:38:06;;;;;;;9.60;3.63;;;5.80;99.90;;;;;;5023205;28;20745;-89
2022/01/31 07:40:33;;;;;;;10.27;3.88;;;5.40;99.90;;;;;;5023559;28;20203;-90
2022/01/31 07:43:00;;;;;;;9.45;3.63;;;5.80;99.90;;;;;;5023038;28;20211;-89
2022/01/31 07:45:27;;;;;;;8.35;4.13;;;5.80;99.90;;;;;;5022566;28;20307;-89
2022/01/31 07:47:54;;;;;;;5.95;3.00;;;5.80;99.90;;;;;;5021722;28;20273;-88
2022/01/31 07:50:21;;;;;;;4.55;2.60;;;5.40;99.90;;;;;;5023233;28;20242;-89
2022/01/31 07:52:48;;;;;;;7.60;3.38;;;5.90;99.90;;;;;;5021066;28;20211;-89
2022/01/31 07:55:17;;;;;;;6.43;3.28;;;5.60;99.90;;;;;;5020620;28;20262;-89
2022/01/31 07:57:46;;;;;;;7.07;3.30;;;5.80;99.90;;;;;;5023620;28;20203;-88
2022/01/31 08:00:17;;;;;;;4.72;2.50;;;5.50;99.90;;;;;;5021637;28;20218;-88
2022/01/31 08:02:44;;;;;;;5.20;2.00;;;6.10;99.90;;;;;;5021232;28;20290;-88
2022/01/31 08:05:11;;;;;;;6.13;2.60;;;5.90;99.90;;;;;;5020661;28;20262;-90
2022/01/31 08:07:38;;;;;;;3.47;2.00;;;5.90;99.90;;;;;;5020842;28;20208;-90
2022/01/31 08:10:07;;;;;;;6.07;2.20;;;5.90;99.90;;;;;;5020695;28;20204;-90
2022/01/31 08:12:36;;;;;;;6.78;2.20;;;5.90;99.90;;;;;;5024960;28;20234;-88
2022/01/31 08:15:07;;;;;;;3.55;1.60;;;5.60;99.90;;;;;;5021965;28;20266;-89
2022/01/31 08:17:34;;;;;;;6.05;2.50;;;6.10;99.90;;;;;;5023409;28;20192;-88
2022/01/31 08:20:01;;;;;;;4.38;1.85;;;6.10;99.90;;;;;;5027622;28;20298;-86
2022/01/31 08:22:28;;;;;;;4.25;1.90;;;6.20;99.90;;;;;;5025132;28;20270;-87
2022/01/31 08:24:55;;;;;;;3.80;1.70;;;6.00;99.90;;;;;;5025181;28;20564;-85
2022/01/31 08:27:23;;;;;;;6.10;2.10;;;6.10;99.90;;;;;;5023744;28;20642;-86
2022/01/31 08:29:56;;;;;;;4.57;2.20;;;6.30;99.90;;;;;;5028229;28;20226;-87
2022/01/31 08:32:33;;;;;;;6.22;1.90;;;6.20;99.90;;;;;;5025157;28;20287;-88
2022/01/31 08:37:44;;;;;;;4.10;2.03;;;6.10;99.90;;;;;;5023258;28;20206;-87
2022/01/31 08:40:12;;;;;;;3.30;1.30;;;6.40;99.90;;;;;;5025523;28;20250;-89
2022/01/31 08:42:39;;;;;;;4.68;1.90;;;6.50;99.90;;;;;;5023418;28;20362;-87
2022/01/31 08:45:10;;;;;;;4.97;1.45;;;6.50;99.90;;;;;;5023588;28;20255;-88
2022/01/31 08:47:40;;;;;;;5.35;1.30;;;6.50;99.90;;;;;;5024030;28;20191;-87
2022/01/31 08:50:07;;;;;;;3.40;1.30;;;6.30;99.90;;;;;;5024836;28;20234;-87
2022/01/31 08:52:36;;;;;;;3.03;1.52;;;6.30;99.90;;;;;;5022657;28;20759;-86
2022/01/31 08:55:02;;;;;;;4.18;1.60;;;6.40;99.90;;;;;;5024082;28;20227;-85
2022/01/31 08:57:29;;;;;;;4.78;1.73;;;6.50;99.90;;;;;;5028893;28;20275;-87
2022/01/31 08:59:57;;;;;;;3.83;1.30;;;6.40;99.90;;;;;;5034590;28;20311;-86
2022/01/31 09:02:37;;;;;;;3.38;1.50;;;6.10;99.90;;;;;;5024692;28;20223;-88
2022/01/31 09:05:04;;;;;;;3.10;1.20;;;6.50;99.90;;;;;;5022750;28;20223;-86
2022/01/31 09:07:31;;;;;;;3.10;1.40;;;6.80;99.90;;;;;;5024236;28;20298;-87
2022/01/31 09:10:00;;;;;;;3.75;1.48;;;6.30;99.90;;;;;;5024248;28;20196;-85
2022/01/31 09:12:31;;;;;;;3.67;1.50;;;6.70;99.90;;;;;;5034016;28;20209;-87
2022/01/31 09:14:58;;;;;;;4.03;1.45;;;6.90;99.90;;;;;;5029173;28;20277;-87
2022/01/31 09:17:26;;;;;;;4.00;1.25;;;6.70;99.90;;;;;;5024784;28;20223;-86
2022/01/31 09:19:53;;;;;;;4.28;1.70;;;6.40;99.90;;;;;;5023517;28;20375;-87
2022/01/31 09:22:20;;;;;;;4.45;1.38;;;6.80;99.90;;;;;;5024011;28;20237;-87
2022/01/31 09:24:49;;;;;;;3.65;1.15;;;6.80;99.90;;;;;;5029205;28;20219;-86
2022/01/31 09:27:16;;;;;;;5.30;1.75;;;7.00;99.90;;;;;;5033225;28;20200;-88
2022/01/31 09:29:43;;;;;;;3.25;1.20;;;6.70;99.90;;;;;;5030811;28;20207;-87
2022/01/31 09:32:12;;;;;;;3.05;1.30;;;7.10;99.90;;;;;;5027310;28;20214;-86
2022/01/31 09:34:40;;;;;;;3.25;1.23;;;7.00;99.90;;;;;;5036179;28;20207;-87
2022/01/31 09:37:08;;;;;;;3.90;1.50;;;7.50;99.90;;;;;;5034606;28;20199;-86
2022/01/31 09:39:35;;;;;;;3.63;1.45;;;7.50;99.90;;;;;;5030719;28;20219;-87
2022/01/31 09:42:04;;;;;;;2.95;1.05;;;7.60;99.90;;;;;;5026684;28;20265;-87
2022/01/31 09:44:44;;;;;;;3.88;1.67;;;7.50;99.90;;;;;;5023081;28;20215;-87
2022/01/31 09:47:21;;;;;;;5.53;1.83;;;7.30;99.90;;;;;;5024843;28;20249;-87
2022/01/31 09:49:49;;;;;;;4.93;1.90;;;7.60;99.90;;;;;;5022726;28;20214;-85
2022/01/31 09:52:16;;;;;;;5.25;1.85;;;7.40;99.90;;;;;;5024641;28;20218;-87
2022/01/31 09:54:47;;;;;;;5.32;1.30;;;7.70;99.90;;;;;;5024198;28;20231;-86
2022/01/31 09:57:15;;;;;;;4.93;1.83;;;7.80;99.90;;;;;;5022893;28;20195;-87
2022/01/31 09:59:41;;;;;;;3.65;1.55;;;7.80;99.90;;;;;;5023581;28;20230;-85
2022/01/31 10:02:14;;;;;;;2.70;0.98;;;7.60;99.90;;;;;;5024276;28;20699;-87
2022/01/31 10:04:44;;;;;;;5.75;2.22;;;7.80;99.90;;;;;;5025216;28;20282;-87
2022/01/31 10:07:14;;;;;;;3.67;1.73;;;7.70;99.90;;;;;;5035671;28;20242;-87
2022/01/31 10:09:43;;;;;;;4.45;1.60;;;7.70;99.90;;;;;;5032291;28;20221;-86
2022/01/31 10:12:20;;;;;;;4.47;1.60;;;7.40;99.90;;;;;;5034381;28;20302;-87
2022/01/31 10:17:35;;;;;;;6.15;1.58;;;7.50;99.90;;;;;;5036970;28;20218;-87
2022/01/31 10:20:04;;;;;;;4.25;1.73;;;7.30;99.90;;;;;;5034591;28;20235;-87
2022/01/31 10:22:34;;;;;;;3.85;1.50;;;7.60;99.90;;;;;;5036024;28;20243;-87
2022/01/31 10:27:34;;;;;;;7.55;2.00;;;7.60;99.90;;;;;;5060738;28;20218;-87
2022/01/31 10:30:09;;;;;;;8.65;1.88;;;7.70;99.90;;;;;;5062044;28;20214;-86
2022/01/31 10:32:39;;;;;;;5.57;1.92;;;7.80;99.90;;;;;;5060958;28;20280;-87
2022/01/31 10:35:09;;;;;;;4.80;1.60;;;7.70;99.90;;;;;;5061097;28;20265;-88
2022/01/31 10:37:41;;;;;;;3.35;0.90;;;7.50;99.90;;;;;;5060941;28;20212;-88
2022/01/31 10:43:38;;;;;;;6.50;1.33;;;7.80;99.90;;;;;;5062353;28;20191;-89
2022/01/31 10:46:11;;;;;;;6.70;1.50;;;7.80;99.90;;;;;;5060871;28;20284;-87
2022/01/31 10:51:58;;;;;;;5.25;1.67;;;7.40;99.90;;;;;;4999736;28;20181;-85
2022/01/31 10:54:38;;;;;;;6.15;1.50;;;7.90;99.90;;;;;;5073576;28;20289;-88
2022/01/31 10:57:07;;;;;;;4.15;1.20;;;8.00;99.90;;;;;;5070014;28;20226;-87
2022/01/31 10:59:37;;;;;;;13.10;2.17;;;8.00;99.90;;;;;;5074418;28;20236;-87
2022/01/31 11:02:08;;;;;;;5.97;2.00;;;7.80;99.90;;;;;;5066243;28;20232;-87
2022/01/31 11:04:37;;;;;;;4.45;1.55;;;7.80;99.90;;;;;;5065597;28;20218;-87
2022/01/31 11:07:06;;;;;;;8.05;2.08;;;7.80;99.90;;;;;;5061926;28;20265;-87
2022/01/31 11:09:35;;;;;;;4.22;1.83;;;7.50;99.90;;;;;;5063176;28;20551;-87
2022/01/31 11:12:05;;;;;;;5.47;1.63;;;7.80;99.90;;;;;;5063472;28;20206;-87
2022/01/31 11:14:32;;;;;;;4.10;1.45;;;8.00;99.90;;;;;;5067933;28;20252;-88
2022/01/31 11:17:03;;;;;;;12.27;2.05;;;7.70;99.90;;;;;;5066084;28;20543;-88
2022/01/31 11:19:32;;;;;;;4.95;1.50;;;7.80;99.90;;;;;;5062573;28;20186;-87
2022/01/31 11:22:03;;;;;;;5.22;1.38;;;7.90;99.90;;;;;;5063402;28;20217;-85
2022/01/31 11:24:44;;;;;;;4.35;1.40;;;8.10;99.90;;;;;;5061191;28;20200;-88
2022/01/31 11:27:13;;;;;;;4.40;1.63;;;8.10;99.90;;;;;;5061303;28;20694;-86
2022/01/31 11:29:44;;;;;;;3.90;1.67;;;7.70;99.90;;;;;;5062139;28;20207;-88
2022/01/31 11:32:12;;;;;;;4.10;2.00;;;8.10;99.90;;;;;;5062977;28;20647;-87
2022/01/31 11:34:41;;;;;;;3.60;1.35;;;8.10;99.90;;;;;;5063253;28;20210;-87
2022/01/31 11:37:10;;;;;;;4.60;1.52;;;8.00;99.90;;;;;;5059780;28;20659;-86
2022/01/31 11:39:40;;;;;;;5.35;1.90;;;8.00;99.90;;;;;;5060865;28;20387;-88
2022/01/31 11:42:12;;;;;;;5.07;1.50;;;7.80;99.90;;;;;;5067113;28;20216;-86
2022/01/31 11:44:45;;;;;;;6.20;1.98;;;7.70;99.90;;;;;;5072521;28;20679;-87
2022/01/31 11:47:13;;;;;;;7.72;1.80;;;7.60;99.90;;;;;;5070574;28;20234;-88
2022/01/31 11:49:50;;;;;;;5.50;1.70;;;7.40;99.90;;;;;;5066758;28;20213;-87
2022/01/31 11:52:19;;;;;;;8.20;2.97;;;7.60;99.90;;;;;;5064406;28;20705;-87
2022/01/31 11:54:58;;;;;;;5.53;1.50;;;7.60;99.90;;;;;;5066213;28;20202;-88
2022/01/31 11:57:29;;;;;;;5.32;1.77;;;7.40;99.90;;;;;;5069001;28;20182;-89
2022/01/31 11:59:58;;;;;;;5.07;1.60;;;7.40;99.90;;;;;;5068137;28;20225;-88
2022/01/31 12:02:34;;;;;;;5.75;1.70;;;7.20;99.90;;;;;;5065513;28;20653;-88
2022/01/31 12:05:11;;;;;;;5.28;2.10;;;7.00;99.90;;;;;;5059888;28;20179;-89
2022/01/31 12:07:40;;;;;;;4.68;1.77;;;7.30;99.90;;;;;;5061108;28;20217;-86
2022/01/31 12:10:11;;;;;;;3.70;1.15;;;7.10;99.90;;;;;;5060878;28;20647;-86
2022/01/31 12:12:51;;;;;;;4.57;1.48;;;7.20;99.90;;;;;;5060311;28;20221;-87
2022/01/31 12:15:52;;;;;;;6.93;1.90;;;7.50;99.90;;;;;;5065797;28;20222;-87
2022/01/31 12:19:18;;;;;;;4.88;2.13;;;7.40;99.90;;;;;;5065702;28;20220;-88
2022/01/31 12:22:01;;;;;;;5.82;1.52;;;7.50;99.90;;;;;;5073170;28;20221;-87
2022/01/31 12:24:32;;;;;;;4.82;1.35;;;7.50;99.90;;;;;;5068879;28;20254;-88
2022/01/31 12:27:08;;;;;;;4.95;1.85;;;7.50;99.90;;;;;;5062967;28;20230;-87
2022/01/31 12:29:38;;;;;;;3.30;1.27;;;7.30;99.90;;;;;;5060034;28;20191;-88
2022/01/31 12:32:17;;;;;;;4.43;1.88;;;7.20;99.90;;;;;;5061800;28;20226;-88
2022/01/31 12:34:53;;;;;;;5.93;1.73;;;7.20;99.90;;;;;;5060431;28;20206;-87
2022/01/31 12:37:29;;;;;;;5.72;1.45;;;7.50;99.90;;;;;;5061710;28;20632;-88
2022/01/31 12:40:06;;;;;;;4.55;1.40;;;7.60;99.90;;;;;;5067604;28;20193;-87
2022/01/31 12:42:52;;;;;;;4.10;1.23;;;7.40;99.90;;;;;;5060680;28;20190;-87
2022/01/31 12:45:20;;;;;;;5.70;1.90;;;7.50;99.90;;;;;;5064512;28;20273;-87
2022/01/31 12:48:19;;;;;;;7.15;2.17;;;7.10;99.90;;;;;;5060793;28;20713;-87
2022/01/31 12:51:00;;;;;;;4.40;1.38;;;7.80;99.90;;;;;;5062180;28;20190;-88
2022/01/31 12:53:53;;;;;;;4.35;1.52;;;7.20;99.90;;;;;;5069594;28;20191;-87
2022/01/31 12:56:35;;;;;;;6.45;1.55;;;7.20;99.90;;;;;;5051298;28;20293;-87
2022/01/31 12:59:13;;;;;;;3.90;1.40;;;7.70;99.90;;;;;;5063417;28;20221;-88
2022/01/31 13:01:42;;;;;;;4.00;1.85;;;7.50;99.90;;;;;;5064350;28;20189;-87
2022/01/31 13:04:12;;;;;;;4.75;1.80;;;7.20;99.90;;;;;;5065684;28;20210;-86
2022/01/31 13:06:44;;;;;;;6.90;2.60;;;7.00;99.90;;;;;;5066187;28;20226;-88
2022/01/31 13:09:15;;;;;;;4.28;1.50;;;7.50;99.90;;;;;;5066983;28;20202;-87
2022/01/31 13:11:47;;;;;;;4.07;1.23;;;7.10;99.90;;;;;;5075922;28;20190;-88
2022/01/31 13:14:18;;;;;;;4.22;1.50;;;7.50;99.90;;;;;;5071375;28;20191;-88
2022/01/31 13:16:51;;;;;;;5.03;2.00;;;7.00;99.90;;;;;;5067100;28;20218;-87
2022/01/31 13:19:24;;;;;;;9.75;2.90;;;7.00;99.90;;;;;;5074108;28;20209;-86
2022/01/31 13:21:51;;;;;;;4.30;1.35;;;7.50;99.90;;;;;;5073847;28;20191;-90
2022/01/31 13:24:20;;;;;;;3.90;1.42;;;7.30;99.90;;;;;;5078416;28;20268;-86
2022/01/31 13:26:57;;;;;;;4.72;1.65;;;7.10;99.90;;;;;;5072084;28;20230;-87
2022/01/31 13:29:34;;;;;;;5.00;1.40;;;7.50;99.90;;;;;;5068948;28;20190;-87
2022/01/31 13:32:17;;;;;;;4.22;1.45;;;6.90;99.90;;;;;;5064088;28;20186;-88
2022/01/31 13:34:45;;;;;;;8.35;1.73;;;7.30;99.90;;;;;;5064308;28;20262;-88
2022/01/31 13:37:39;;;;;;;8.45;1.67;;;7.40;99.90;;;;;;5063199;28;20589;-88
2022/01/31 13:40:10;;;;;;;5.10;2.10;;;7.40;99.90;;;;;;5063664;28;20254;-89
2022/01/31 13:42:39;;;;;;;5.60;1.40;;;7.40;99.90;;;;;;5065104;28;20198;-89
2022/01/31 13:45:14;;;;;;;5.53;1.35;;;7.20;99.90;;;;;;5068032;28;20307;-88